Главная страница
METAR-TAF:

METAR-TAF

Аэропорты :

Тузла, Босния и Герцеговина

широта: 44-33N, долгота: 018-42E, высота над уровнем моря: 306 м

Текущие метеонаблюдения

Эта сводка был подготовлена 8 минут назад, в 21:00 UTC
Ветер 1 Узел переменных направлений
Температура 12°C
Влажность 88%
Давление 1018 hPa
Видимость 10 км и более
Нет облачности ниже 1500 м, и нет кучево-дождевой облачности

METAR: LQTZ 202100Z VRB01KT CAVOK 12/10 Q1018

Время: 23:08 (21:08 UTC)

Прогноз

Эта сводка был подготовлена 4 часа и 8 минут назад, в 17:00 UTC
Прогноз действительный с 20-го 18 UTC до 21-го 18 UTC
Ветер 4 Узел от восточный
Видимость 10 км и более
Нет облачности ниже 1500 м, и нет кучево-дождевой облачности
Вероятность 40% :
временами
С 21-го 13 UTC до 21-го 18 UTC
Ветер 15 Узел от восточный
небольшая облачность на высоте 3500 фута, Кучево-дождевые.
Отдельные облака на высоте 4500 фута
гроза, дождь

TAF: LQTZ 201700Z 2018/2118 08004KT CAVOK TX24/2113Z TN10/2103Z PROB40 TEMPO 2113/2118 08015KT TSRA FEW035CB SCT045

Метеонаблюдения и прогнозы для более 4000 аэропортов (сводки METAR и TAF).

Имеющиеся станции представлены на карте желтыми и красными точками.

Чтобы увидеть название станции, наведите на нее мышь.

Затем щелкните, чтобы увидеть метеонаблюдения и метеопрогнозы.

Управление картой: чтобы увеличить масштаб, щелкните зеленые кнопки с черным крестиком; чтобы уменьшить масштаб, щелкните зеленую кнопку с тире; для просмотра соседних карт щелкайте зеленые стрелки.


METAR-TAF: